createdAt,value
2023-05-13T00:04:52.650Z,12.10
2023-05-13T00:09:54.454Z,12.34
2023-05-13T00:14:56.214Z,12.41
2023-05-13T00:19:58.294Z,11.64
2023-05-13T00:25:00.237Z,10.87
2023-05-13T00:30:02.306Z,11.98
2023-05-13T00:35:04.405Z,11.87
2023-05-13T00:40:16.107Z,12.22
2023-05-13T00:45:18.403Z,12.24
2023-05-13T00:50:20.792Z,12.18
2023-05-13T00:55:22.761Z,12.15
2023-05-13T01:00:24.750Z,12.39
2023-05-13T01:05:47.174Z,12.16
2023-05-13T01:10:59.058Z,11.81
2023-05-13T01:16:06.953Z,12.28
2023-05-13T01:21:10.434Z,12.23
2023-05-13T01:26:12.377Z,12.18
2023-05-13T01:31:15.517Z,11.82
2023-05-13T01:36:18.244Z,11.38
2023-05-13T01:41:20.099Z,11.85
2023-05-13T01:46:22.499Z,11.91
2023-05-13T01:51:24.603Z,11.69
2023-05-13T01:56:26.672Z,11.66
2023-05-13T02:01:28.922Z,11.72
2023-05-13T02:06:32.178Z,11.78
2023-05-13T02:11:35.655Z,12.33
2023-05-13T02:16:37.595Z,12.50
2023-05-13T02:21:43.415Z,12.04
2023-05-13T02:26:45.165Z,12.04
2023-05-13T02:31:46.998Z,12.16
2023-05-13T02:36:48.874Z,12.33
2023-05-13T02:41:50.783Z,12.28
2023-05-13T02:46:53.118Z,11.98
2023-05-13T02:51:54.983Z,11.56
2023-05-13T02:57:03.336Z,11.60
2023-05-13T03:02:05.493Z,12.06
2023-05-13T03:07:07.490Z,12.04
2023-05-13T03:12:09.454Z,12.32
2023-05-13T03:17:11.511Z,12.51
2023-05-13T03:22:13.298Z,11.64
2023-05-13T03:27:15.298Z,12.23
2023-05-13T03:32:17.115Z,12.24
2023-05-13T03:37:19.404Z,12.24
2023-05-13T03:42:23.250Z,12.36
2023-05-13T03:47:26.033Z,12.21
2023-05-13T03:52:28.447Z,12.24
2023-05-13T03:57:30.291Z,12.07
2023-05-13T04:02:32.250Z,12.11
2023-05-13T04:07:34.675Z,12.16
2023-05-13T04:12:37.448Z,12.15
2023-05-13T04:17:39.317Z,12.22
2023-05-13T04:22:41.637Z,12.23
2023-05-13T04:27:43.685Z,12.06
2023-05-13T04:32:51.390Z,12.51
2023-05-13T04:37:53.617Z,12.77
2023-05-13T04:42:56.148Z,12.59
2023-05-13T04:48:02.805Z,12.59
2023-05-13T04:53:04.794Z,12.65
2023-05-13T04:58:07.000Z,12.45
2023-05-13T05:03:10.915Z,12.58
2023-05-13T05:08:13.029Z,12.66
2023-05-13T05:13:15.452Z,12.96
2023-05-13T05:18:19.975Z,12.88
2023-05-13T05:23:24.891Z,13.10
2023-05-13T05:28:26.968Z,13.02
2023-05-13T05:33:29.156Z,13.34
2023-05-13T05:38:31.203Z,13.49
2023-05-13T05:43:34.340Z,13.56
2023-05-13T05:48:36.205Z,13.60
2023-05-13T05:53:41.077Z,13.57
2023-05-13T05:58:44.892Z,13.75
2023-05-13T06:03:47.072Z,13.69
2023-05-13T06:08:50.866Z,13.78
2023-05-13T06:13:54.132Z,13.77
2023-05-13T06:18:56.651Z,11.94
2023-05-13T06:24:00.909Z,10.80
2023-05-13T06:29:03.031Z,8.70
2023-05-13T06:34:08.798Z,8.89
2023-05-13T06:39:12.288Z,10.83
2023-05-13T06:44:14.885Z,11.86
2023-05-13T06:49:21.240Z,11.25
2023-05-13T06:54:23.281Z,10.51
2023-05-13T06:59:25.398Z,12.01
2023-05-13T07:04:29.356Z,7.87
2023-05-13T07:09:31.271Z,8.02
2023-05-13T07:14:33.111Z,7.31
2023-05-13T07:19:34.913Z,7.76
2023-05-13T07:24:36.835Z,10.26
2023-05-13T07:29:38.666Z,10.79
2023-05-13T07:34:40.482Z,11.41
2023-05-13T07:39:42.451Z,10.01
2023-05-13T07:44:44.217Z,9.46
2023-05-13T07:49:46.072Z,10.73
2023-05-13T07:54:48.221Z,11.03
2023-05-13T07:59:50.080Z,10.48
2023-05-13T08:04:51.909Z,7.16
2023-05-13T08:09:53.801Z,8.65
2023-05-13T08:14:55.624Z,8.26
2023-05-13T08:19:57.519Z,8.56
2023-05-13T08:25:00.977Z,9.69
2023-05-13T08:30:03.302Z,11.07
2023-05-13T08:35:05.686Z,8.62
2023-05-13T08:40:08.265Z,8.68
2023-05-13T08:45:11.697Z,9.52
2023-05-13T08:50:14.391Z,9.89
2023-05-13T08:55:17.454Z,11.19
2023-05-13T09:00:21.382Z,11.07
2023-05-13T09:05:25.144Z,10.17
2023-05-13T09:10:28.082Z,10.57
2023-05-13T09:15:30.549Z,9.02
2023-05-13T09:20:33.236Z,8.93
2023-05-13T09:25:36.510Z,7.49
2023-05-13T09:30:40.651Z,6.89
2023-05-13T09:35:44.625Z,10.52
2023-05-13T09:41:05.135Z,7.13
2023-05-13T09:46:09.285Z,5.33
2023-05-13T09:51:12.065Z,7.37
2023-05-13T09:56:13.891Z,9.13
2023-05-13T10:01:16.110Z,8.26
2023-05-13T10:06:18.695Z,8.99
2023-05-13T10:11:21.523Z,11.17
2023-05-13T10:16:25.204Z,7.49
2023-05-13T10:21:27.809Z,9.49
2023-05-13T10:26:29.999Z,9.16
2023-05-13T10:31:32.174Z,9.66
2023-05-13T10:36:48.870Z,11.68
2023-05-13T10:41:53.403Z,11.64
2023-05-13T10:46:58.542Z,11.27
2023-05-13T10:52:14.335Z,11.35
2023-05-13T10:57:17.722Z,10.63
2023-05-13T11:02:22.101Z,10.27
2023-05-13T11:07:24.031Z,9.44
2023-05-13T11:12:26.011Z,11.77
2023-05-13T11:17:31.177Z,12.58
2023-05-13T11:22:34.027Z,13.83
2023-05-13T11:27:41.553Z,13.83
2023-05-13T11:32:56.491Z,14.35
2023-05-13T11:38:03.310Z,15.09
2023-05-13T11:43:06.258Z,15.10
2023-05-13T11:48:22.310Z,14.99
2023-05-13T11:53:24.135Z,14.92
2023-05-13T11:58:26.167Z,14.59
2023-05-13T12:03:28.218Z,14.76
2023-05-13T12:08:30.258Z,14.85
2023-05-13T12:13:32.145Z,15.03
2023-05-13T12:18:34.427Z,14.95
2023-05-13T12:23:40.822Z,15.35
2023-05-13T12:28:42.858Z,15.13
2023-05-13T12:33:46.875Z,14.85
2023-05-13T12:39:00.043Z,14.30
2023-05-13T12:44:14.896Z,14.89
2023-05-13T12:49:16.835Z,14.04
2023-05-13T12:54:18.971Z,12.24
2023-05-13T12:59:20.839Z,13.53
2023-05-13T13:04:23.405Z,13.74
2023-05-13T13:09:25.434Z,14.51
2023-05-13T13:14:27.364Z,14.91
2023-05-13T13:19:29.216Z,15.30
2023-05-13T13:24:31.545Z,13.83
2023-05-13T13:29:33.359Z,12.90
2023-05-13T13:34:35.342Z,12.98
2023-05-13T13:39:37.167Z,13.41
2023-05-13T13:44:39.517Z,13.18
2023-05-13T13:49:41.375Z,13.22
2023-05-13T13:54:43.113Z,13.63
2023-05-13T13:59:44.973Z,13.54
2023-05-13T14:04:46.716Z,14.81
2023-05-13T14:09:49.743Z,14.59
2023-05-13T14:14:51.583Z,13.77
2023-05-13T14:19:55.463Z,14.62
2023-05-13T14:24:58.863Z,14.42
2023-05-13T14:30:00.608Z,13.60
2023-05-13T14:35:02.411Z,11.64
2023-05-13T14:40:04.721Z,12.57
2023-05-13T14:45:07.160Z,12.81
2023-05-13T14:50:09.107Z,12.77
2023-05-13T14:55:11.078Z,12.26
2023-05-13T15:00:13.488Z,13.05
2023-05-13T15:05:15.286Z,11.71
2023-05-13T15:10:17.055Z,12.76
2023-05-13T15:15:19.041Z,11.64
2023-05-13T15:20:21.056Z,11.80
2023-05-13T15:25:22.996Z,10.70
2023-05-13T15:30:24.920Z,12.13
2023-05-13T15:35:26.723Z,10.18
2023-05-13T15:40:28.499Z,9.62
2023-05-13T15:45:30.622Z,8.90
2023-05-13T15:50:33.731Z,7.79
2023-05-13T15:55:37.415Z,8.32
2023-05-13T16:00:39.224Z,9.82
2023-05-13T16:05:41.134Z,10.40
2023-05-13T16:10:43.084Z,9.76
2023-05-13T16:15:45.049Z,10.90
2023-05-13T16:20:47.085Z,11.93
2023-05-13T16:25:48.979Z,11.65
2023-05-13T16:30:51.314Z,10.56
2023-05-13T16:35:55.823Z,9.58
2023-05-13T16:40:57.691Z,10.99
2023-05-13T16:45:59.511Z,12.64
2023-05-13T16:51:01.339Z,13.24
2023-05-13T16:56:03.149Z,9.82
2023-05-13T17:01:04.976Z,9.67
2023-05-13T17:06:07.568Z,9.86
2023-05-13T17:11:16.069Z,10.78
2023-05-13T17:16:18.061Z,11.46
2023-05-13T17:21:19.866Z,10.92
2023-05-13T17:26:22.019Z,8.73
2023-05-13T17:31:24.987Z,8.61
2023-05-13T17:36:26.979Z,9.88
2023-05-13T17:41:28.738Z,10.05
2023-05-13T17:46:30.643Z,10.13
2023-05-13T17:51:32.503Z,8.92
2023-05-13T17:56:34.336Z,9.24
2023-05-13T18:01:36.204Z,9.05
2023-05-13T18:06:38.022Z,9.43
2023-05-13T18:11:39.872Z,11.59
2023-05-13T18:16:41.897Z,10.99
2023-05-13T18:21:45.520Z,12.54
2023-05-13T18:26:47.370Z,9.14
2023-05-13T18:31:49.229Z,12.19
2023-05-13T18:36:52.211Z,12.14
2023-05-13T18:41:54.013Z,11.25
2023-05-13T18:46:55.933Z,10.34
2023-05-13T18:51:57.842Z,12.41
2023-05-13T18:56:59.743Z,13.20
2023-05-13T19:02:01.802Z,13.09
2023-05-13T19:07:03.808Z,12.86
2023-05-13T19:12:05.941Z,13.75
2023-05-13T19:17:08.014Z,13.79
2023-05-13T19:22:09.899Z,13.91
2023-05-13T19:27:11.872Z,14.18
2023-05-13T19:32:13.693Z,14.19
2023-05-13T19:37:15.524Z,14.00
2023-05-13T19:42:17.332Z,14.08
2023-05-13T19:47:19.170Z,14.01
2023-05-13T19:52:20.980Z,14.05
2023-05-13T19:57:22.742Z,13.56
2023-05-13T20:02:24.483Z,13.69
2023-05-13T20:07:26.210Z,12.94
2023-05-13T20:12:28.048Z,13.12
2023-05-13T20:17:32.990Z,13.65
2023-05-13T20:22:35.135Z,13.54
2023-05-13T20:27:36.935Z,13.95
2023-05-13T20:32:38.781Z,14.11
2023-05-13T20:37:40.975Z,14.20
2023-05-13T20:42:42.928Z,14.26
2023-05-13T20:47:44.658Z,13.90
2023-05-13T20:52:46.432Z,13.35
2023-05-13T20:57:50.068Z,12.84
2023-05-13T21:02:53.194Z,12.68
2023-05-13T21:07:55.006Z,11.94
2023-05-13T21:12:56.712Z,12.49
2023-05-13T21:17:58.830Z,12.75
2023-05-13T21:23:01.326Z,12.51
2023-05-13T21:28:03.711Z,13.21
2023-05-13T21:33:05.688Z,13.12
2023-05-13T21:38:11.846Z,13.49
2023-05-13T21:43:14.434Z,12.83
2023-05-13T21:48:16.606Z,12.10
2023-05-13T21:53:18.444Z,10.63
2023-05-13T21:58:21.895Z,10.37
2023-05-13T22:03:25.119Z,11.69
2023-05-13T22:08:26.834Z,12.19
2023-05-13T22:13:28.641Z,12.24
2023-05-13T22:18:30.903Z,12.77
2023-05-13T22:23:33.333Z,12.69
2023-05-13T22:28:35.072Z,12.95
2023-05-13T22:33:36.821Z,13.04
2023-05-13T22:38:39.019Z,13.32
2023-05-13T22:43:40.783Z,13.47
2023-05-13T22:48:42.533Z,13.59
2023-05-13T22:53:44.332Z,13.54
2023-05-13T22:58:46.126Z,13.56
2023-05-13T23:03:47.917Z,13.65
2023-05-13T23:08:49.670Z,13.35
2023-05-13T23:13:51.533Z,13.14
2023-05-13T23:18:55.132Z,12.68
2023-05-13T23:23:57.918Z,12.99
2023-05-13T23:28:59.671Z,13.22
2023-05-13T23:34:01.492Z,11.58
2023-05-13T23:39:03.385Z,12.63
2023-05-13T23:44:05.160Z,13.05
2023-05-13T23:49:06.986Z,13.33
2023-05-13T23:54:08.774Z,13.55
2023-05-13T23:59:10.615Z,13.62
